Time;durP1;ratioP1;P1;durP2;ratioP2;P2;SDS_P1;SDS_P2;PMS_P1;PMS_P2;Temp;Humidity;BMP_temperature;BMP_pressure;BME280_temperature;BME280_humidity;BME280_pressure;Samples;Min_cycle;Max_cycle;Signal;HPM_P1;HPM_P2
2020/12/11 00:00:18;;;;;;;13.68;12.27;;;8.30;99.90;;;;;;4938664;29;20444;-75
2020/12/11 00:02:43;;;;;;;13.38;11.63;;;8.40;99.90;;;;;;4938196;29;20035;-75
2020/12/11 00:05:10;;;;;;;12.80;11.40;;;8.40;99.90;;;;;;4931933;29;20036;-74
2020/12/11 00:07:37;;;;;;;13.77;12.35;;;8.30;99.90;;;;;;4916759;29;20050;-75
2020/12/11 00:10:09;;;;;;;11.90;10.60;;;8.30;99.90;;;;;;4938794;29;20367;-75
2020/12/11 00:12:35;;;;;;;15.57;12.45;;;8.30;99.90;;;;;;4920383;29;20070;-76
2020/12/11 00:15:02;;;;;;;14.07;11.00;;;8.30;99.90;;;;;;4930397;29;20040;-76
2020/12/11 00:17:28;;;;;;;15.07;11.68;;;8.40;99.90;;;;;;4938513;29;20035;-75
2020/12/11 00:19:55;;;;;;;14.32;10.50;;;8.40;99.90;;;;;;4914192;29;20046;-78
2020/12/11 00:22:21;;;;;;;12.05;10.57;;;8.40;99.90;;;;;;4934553;29;20051;-75
2020/12/11 00:24:48;;;;;;;16.40;11.75;;;8.40;99.90;;;;;;4933003;29;20039;-77
2020/12/11 00:27:14;;;;;;;12.30;10.02;;;8.50;99.90;;;;;;4911434;29;20111;-76
2020/12/11 00:29:40;;;;;;;12.43;10.20;;;8.50;99.90;;;;;;4914826;29;20036;-76
2020/12/11 00:32:08;;;;;;;11.00;9.82;;;8.40;99.90;;;;;;4929447;29;20028;-75
2020/12/11 00:34:35;;;;;;;14.68;10.77;;;8.50;99.90;;;;;;4929985;29;20075;-74
2020/12/11 00:37:01;;;;;;;11.30;10.10;;;8.50;99.90;;;;;;4909033;29;20036;-75
2020/12/11 00:39:27;;;;;;;11.50;10.40;;;8.50;99.90;;;;;;4913300;29;20020;-74
2020/12/11 00:41:54;;;;;;;15.07;12.00;;;8.50;99.90;;;;;;4928027;29;20036;-76
2020/12/11 00:44:20;;;;;;;10.85;9.75;;;8.50;99.90;;;;;;4901221;29;20032;-76
2020/12/11 00:46:46;;;;;;;12.68;10.93;;;8.60;99.90;;;;;;4916378;29;20036;-76
2020/12/11 00:49:12;;;;;;;11.00;9.80;;;8.60;99.90;;;;;;4929899;29;20483;-76
2020/12/11 00:51:38;;;;;;;10.60;9.40;;;8.60;99.90;;;;;;4924198;29;20076;-76
2020/12/11 00:54:04;;;;;;;9.10;8.20;;;8.60;99.90;;;;;;4924862;29;20063;-74
2020/12/11 00:56:30;;;;;;;10.05;8.95;;;8.60;99.90;;;;;;4929172;29;20028;-76
2020/12/11 00:58:56;;;;;;;9.77;8.77;;;8.60;99.90;;;;;;4917150;29;20032;-76
2020/12/11 01:01:22;;;;;;;10.07;8.45;;;8.60;99.90;;;;;;4933026;29;20503;-75
2020/12/11 01:03:47;;;;;;;12.10;9.23;;;8.60;99.90;;;;;;4914480;29;20036;-75
2020/12/11 01:06:13;;;;;;;10.82;9.27;;;8.50;99.90;;;;;;4911726;29;20039;-76
2020/12/11 01:08:39;;;;;;;11.45;10.02;;;8.50;99.90;;;;;;4931494;29;20028;-77
2020/12/11 01:11:05;;;;;;;12.48;10.57;;;8.50;99.90;;;;;;4925249;29;20578;-75
2020/12/11 01:13:31;;;;;;;12.35;9.43;;;8.50;99.90;;;;;;4927412;29;20115;-75
2020/12/11 01:15:58;;;;;;;11.05;9.88;;;8.40;99.90;;;;;;4934369;29;20035;-75
2020/12/11 01:18:23;;;;;;;11.38;8.77;;;8.40;99.90;;;;;;4916319;29;20075;-75
2020/12/11 01:20:49;;;;;;;12.38;10.82;;;8.30;99.90;;;;;;4935889;29;20314;-76
2020/12/11 01:23:15;;;;;;;11.02;9.60;;;8.40;99.90;;;;;;4921883;29;20463;-76
2020/12/11 01:25:41;;;;;;;10.35;8.48;;;8.50;99.90;;;;;;4937068;29;20032;-76
2020/12/11 01:28:07;;;;;;;11.20;9.82;;;8.50;99.90;;;;;;4923089;29;20034;-77
2020/12/11 01:30:33;;;;;;;10.55;9.43;;;8.50;99.90;;;;;;4941469;29;20024;-76
2020/12/11 01:32:58;;;;;;;9.90;8.88;;;8.50;99.90;;;;;;4944772;29;20035;-77
2020/12/11 01:35:24;;;;;;;11.23;8.48;;;8.40;99.90;;;;;;4936455;29;20036;-75
2020/12/11 01:37:50;;;;;;;10.98;9.27;;;8.50;99.90;;;;;;4933802;29;20506;-76
2020/12/11 01:40:16;;;;;;;11.35;9.60;;;8.50;99.90;;;;;;4935052;29;20056;-75
2020/12/11 01:42:42;;;;;;;8.88;8.07;;;8.50;99.90;;;;;;4919191;29;20043;-75
2020/12/11 01:45:08;;;;;;;10.88;9.77;;;8.50;99.90;;;;;;4929858;29;20032;-75
2020/12/11 01:47:44;;;;;;;11.57;9.38;;;8.50;99.90;;;;;;4928843;29;20111;-75
2020/12/11 01:50:18;;;;;;;12.77;10.65;;;8.50;99.90;;;;;;4930002;29;20459;-76
2020/12/11 01:52:47;;;;;;;11.00;9.52;;;8.60;99.90;;;;;;4926255;29;20122;-75
2020/12/11 01:55:13;;;;;;;11.23;9.40;;;8.60;99.90;;;;;;4928330;29;20042;-76
2020/12/11 01:57:53;;;;;;;11.43;9.98;;;8.50;99.90;;;;;;4918811;29;20022;-76
2020/12/11 02:00:20;;;;;;;11.55;9.73;;;8.50;99.90;;;;;;4939591;29;20024;-75
2020/12/11 02:02:46;;;;;;;11.60;10.20;;;8.40;99.90;;;;;;4945193;29;20099;-76
2020/12/11 02:05:12;;;;;;;11.35;10.20;;;8.40;99.90;;;;;;4936254;29;20028;-78
2020/12/11 02:07:39;;;;;;;11.25;8.80;;;8.50;99.90;;;;;;4941462;29;20094;-76
2020/12/11 02:10:09;;;;;;;10.55;9.45;;;8.60;99.90;;;;;;4926223;29;20046;-77
2020/12/11 02:12:37;;;;;;;9.73;8.73;;;8.60;99.90;;;;;;4917745;29;20052;-76
2020/12/11 02:15:05;;;;;;;11.95;9.95;;;8.60;99.90;;;;;;4934482;29;20032;-77
2020/12/11 02:17:31;;;;;;;11.63;9.13;;;8.60;99.90;;;;;;4910602;29;20497;-76
2020/12/11 02:19:57;;;;;;;9.93;8.93;;;8.50;99.90;;;;;;4932697;29;20067;-75
2020/12/11 02:22:23;;;;;;;15.95;10.27;;;8.50;99.90;;;;;;4920927;29;20065;-75
2020/12/11 02:24:49;;;;;;;12.60;11.25;;;8.50;99.90;;;;;;4931749;29;20031;-76
2020/12/11 02:27:15;;;;;;;11.30;9.90;;;8.50;99.90;;;;;;4926187;29;20034;-76
2020/12/11 02:29:41;;;;;;;11.43;9.05;;;8.50;99.90;;;;;;4928516;29;20079;-77
2020/12/11 02:32:07;;;;;;;10.45;9.32;;;8.40;99.90;;;;;;4929210;29;20039;-76
2020/12/11 02:34:33;;;;;;;11.00;9.65;;;8.40;99.90;;;;;;4930230;29;20028;-75
2020/12/11 02:37:20;;;;;;;10.40;9.40;;;8.30;99.90;;;;;;4925063;29;20511;-76
2020/12/11 02:39:46;;;;;;;11.88;9.85;;;8.30;99.90;;;;;;4919755;29;20498;-76
2020/12/11 02:42:12;;;;;;;10.07;9.05;;;8.20;99.90;;;;;;4934454;29;20024;-76
2020/12/11 02:44:38;;;;;;;14.88;11.07;;;8.20;99.90;;;;;;4934558;29;20032;-76
2020/12/11 02:47:04;;;;;;;12.82;9.80;;;8.20;99.90;;;;;;4932372;29;20115;-76
2020/12/11 02:49:29;;;;;;;11.88;9.65;;;8.10;99.90;;;;;;4938370;29;20031;-76
2020/12/11 02:51:55;;;;;;;13.30;10.57;;;8.00;99.90;;;;;;4931551;29;20046;-76
2020/12/11 02:54:21;;;;;;;11.13;9.02;;;8.00;99.90;;;;;;4936710;29;20090;-76
2020/12/11 02:56:47;;;;;;;10.20;9.20;;;8.00;99.90;;;;;;4934073;29;20107;-76
2020/12/11 02:59:13;;;;;;;9.07;8.18;;;8.00;99.90;;;;;;4934254;29;20027;-76
2020/12/11 03:01:39;;;;;;;10.07;9.18;;;8.00;99.90;;;;;;4932021;29;20027;-76
2020/12/11 03:04:05;;;;;;;10.68;9.55;;;8.00;99.90;;;;;;4929442;29;20028;-76
2020/12/11 03:06:31;;;;;;;10.40;9.38;;;8.00;99.90;;;;;;4932987;29;20482;-76
2020/12/11 03:08:59;;;;;;;11.65;8.93;;;8.00;99.90;;;;;;4934962;29;20079;-76
2020/12/11 03:11:25;;;;;;;11.82;10.18;;;7.90;99.90;;;;;;4934434;29;20035;-76
2020/12/11 03:13:52;;;;;;;11.30;10.10;;;7.80;99.90;;;;;;4937419;29;20387;-76
2020/12/11 03:16:18;;;;;;;11.05;9.77;;;7.80;99.90;;;;;;4933964;29;20030;-77
2020/12/11 03:18:48;;;;;;;11.20;9.85;;;7.90;99.90;;;;;;4936069;29;20028;-76
2020/12/11 03:21:14;;;;;;;12.15;9.10;;;7.90;99.90;;;;;;4932624;29;20028;-77
2020/12/11 03:23:40;;;;;;;10.77;9.05;;;8.00;99.90;;;;;;4917957;29;20043;-77
2020/12/11 03:26:06;;;;;;;9.93;8.73;;;8.00;99.90;;;;;;4928626;29;20016;-76
2020/12/11 03:28:33;;;;;;;8.73;7.80;;;7.90;99.90;;;;;;4934813;29;20372;-76
2020/12/11 03:30:59;;;;;;;9.00;8.10;;;8.00;99.90;;;;;;4930646;29;20025;-76
2020/12/11 03:33:25;;;;;;;10.15;7.88;;;8.00;99.90;;;;;;4924983;29;20036;-76
2020/12/11 03:35:53;;;;;;;9.48;8.18;;;8.00;99.90;;;;;;4930765;29;20475;-76
2020/12/11 03:38:18;;;;;;;9.38;8.45;;;8.00;99.90;;;;;;4912439;29;20500;-77
2020/12/11 03:40:44;;;;;;;8.40;7.55;;;8.00;99.90;;;;;;4937041;29;20051;-76
2020/12/11 03:43:10;;;;;;;11.27;9.85;;;8.00;99.90;;;;;;4914978;29;20024;-76
2020/12/11 03:45:36;;;;;;;8.45;7.55;;;8.00;99.90;;;;;;4928985;29;20119;-76
2020/12/11 03:48:02;;;;;;;8.10;7.28;;;8.00;99.90;;;;;;4928758;29;20040;-77
2020/12/11 03:50:28;;;;;;;10.23;9.23;;;8.00;99.90;;;;;;4947105;29;20119;-76
2020/12/11 03:52:54;;;;;;;13.13;10.18;;;8.00;99.90;;;;;;4941098;29;20488;-76
2020/12/11 03:55:19;;;;;;;10.27;8.25;;;7.90;99.90;;;;;;4933921;29;20062;-76
2020/12/11 03:57:45;;;;;;;9.48;7.85;;;7.80;99.90;;;;;;4935555;29;20059;-76
2020/12/11 04:00:11;;;;;;;13.52;8.95;;;7.80;99.90;;;;;;4917508;29;20522;-76
2020/12/11 04:02:37;;;;;;;10.40;9.13;;;7.70;99.90;;;;;;4926660;29;20444;-76
2020/12/11 04:05:04;;;;;;;9.73;8.70;;;7.70;99.90;;;;;;4908300;29;20146;-76
2020/12/11 04:07:30;;;;;;;10.95;9.38;;;7.70;99.90;;;;;;4907626;29;20040;-76
2020/12/11 04:09:56;;;;;;;8.27;7.45;;;7.70;99.90;;;;;;4931020;29;20028;-76
2020/12/11 04:12:22;;;;;;;7.40;6.45;;;7.70;99.90;;;;;;4910673;29;20202;-76
2020/12/11 04:14:48;;;;;;;11.85;7.45;;;7.70;99.90;;;;;;4914961;29;20110;-76
2020/12/11 04:17:14;;;;;;;8.88;6.93;;;7.70;99.90;;;;;;4915478;29;20036;-76
2020/12/11 04:19:40;;;;;;;8.82;6.03;;;7.70;99.90;;;;;;4957752;29;20055;-76
2020/12/11 04:22:05;;;;;;;8.23;6.63;;;7.70;99.90;;;;;;4944426;29;20067;-76
2020/12/11 04:24:31;;;;;;;7.07;5.78;;;7.70;99.90;;;;;;4954164;29;20047;-75
2020/12/11 04:26:57;;;;;;;8.32;6.38;;;7.70;99.90;;;;;;4927692;29;20059;-75
2020/12/11 04:29:23;;;;;;;6.53;5.82;;;7.70;99.90;;;;;;4928173;29;20028;-76
2020/12/11 04:31:58;;;;;;;6.47;5.80;;;7.70;99.90;;;;;;4938953;29;20039;-76
2020/12/11 04:34:24;;;;;;;6.97;5.82;;;7.80;99.90;;;;;;4934162;29;20039;-76
2020/12/11 04:36:55;;;;;;;7.30;6.30;;;7.80;99.90;;;;;;4917301;29;20118;-76
2020/12/11 04:39:21;;;;;;;6.65;5.63;;;7.80;99.90;;;;;;4933510;29;20051;-76
2020/12/11 04:41:49;;;;;;;6.72;6.03;;;7.80;99.90;;;;;;4929053;29;20020;-76
2020/12/11 04:44:15;;;;;;;7.82;7.03;;;7.80;99.90;;;;;;4919296;29;20032;-76
2020/12/11 04:46:40;;;;;;;7.22;6.22;;;7.80;99.90;;;;;;4930842;29;20054;-76
2020/12/11 04:49:07;;;;;;;13.07;7.68;;;7.80;99.90;;;;;;4926406;29;20542;-76
2020/12/11 04:51:34;;;;;;;8.25;7.30;;;7.80;99.90;;;;;;4933111;29;20484;-76
2020/12/11 04:54:02;;;;;;;8.75;7.82;;;7.80;99.90;;;;;;4915008;29;20067;-76
2020/12/11 04:56:30;;;;;;;11.05;8.27;;;7.90;99.90;;;;;;4931974;29;20386;-76
2020/12/11 04:58:56;;;;;;;10.32;9.27;;;7.80;99.90;;;;;;4911491;29;20032;-76
2020/12/11 05:01:32;;;;;;;11.82;8.73;;;7.80;99.90;;;;;;4938876;29;20026;-76
2020/12/11 05:03:59;;;;;;;11.35;8.52;;;7.80;99.90;;;;;;4929378;29;20061;-76
2020/12/11 05:06:25;;;;;;;11.07;8.10;;;7.70;99.90;;;;;;4931759;29;20056;-76
2020/12/11 05:09:13;;;;;;;9.95;9.00;;;7.60;99.90;;;;;;4933071;29;20039;-76
2020/12/11 05:11:42;;;;;;;14.25;10.98;;;7.50;99.90;;;;;;4927195;29;20114;-76
2020/12/11 05:14:19;;;;;;;9.57;8.05;;;7.60;99.90;;;;;;4925698;29;20154;-76
2020/12/11 05:16:56;;;;;;;9.25;8.35;;;7.50;99.90;;;;;;4938191;29;20469;-76
2020/12/11 05:19:22;;;;;;;10.43;8.73;;;7.50;99.90;;;;;;4928713;29;20410;-76
2020/12/11 05:21:48;;;;;;;9.40;7.88;;;7.60;99.90;;;;;;4930956;29;20020;-77
2020/12/11 05:24:14;;;;;;;12.82;8.15;;;7.60;99.90;;;;;;4909859;29;20517;-76
2020/12/11 05:26:39;;;;;;;9.00;8.00;;;7.60;99.90;;;;;;4911584;29;20024;-77
2020/12/11 05:29:05;;;;;;;10.65;9.55;;;7.60;99.90;;;;;;4928689;29;20032;-76
2020/12/11 05:31:33;;;;;;;9.18;8.20;;;7.60;99.90;;;;;;4910085;29;20034;-76
2020/12/11 05:34:15;;;;;;;11.52;8.70;;;7.50;99.90;;;;;;4921335;29;20039;-76
2020/12/11 05:36:53;;;;;;;9.07;6.63;;;7.40;99.90;;;;;;4927997;29;20056;-76
2020/12/11 05:39:33;;;;;;;10.93;8.73;;;7.30;99.90;;;;;;4936460;29;20228;-76
2020/12/11 05:42:01;;;;;;;10.15;8.23;;;7.30;99.90;;;;;;4922576;29;20399;-76
2020/12/11 05:44:32;;;;;;;9.43;8.40;;;7.30;99.90;;;;;;4926438;29;20444;-76
2020/12/11 05:47:14;;;;;;;12.60;7.50;;;7.20;99.90;;;;;;4915209;29;20031;-76
2020/12/11 05:49:40;;;;;;;9.50;8.60;;;7.20;99.90;;;;;;4930238;29;20527;-76
2020/12/11 05:52:12;;;;;;;11.38;7.78;;;7.10;99.90;;;;;;4931783;29;20039;-76
2020/12/11 05:54:46;;;;;;;7.85;7.10;;;7.00;99.90;;;;;;4933667;29;20044;-76
2020/12/11 05:57:14;;;;;;;10.73;7.72;;;7.00;99.90;;;;;;4929680;29;20486;-76
2020/12/11 05:59:42;;;;;;;8.73;7.47;;;7.10;99.90;;;;;;4926806;29;20024;-76
2020/12/11 06:02:09;;;;;;;8.50;7.35;;;7.10;99.90;;;;;;4925022;29;20035;-76
2020/12/11 06:04:36;;;;;;;10.57;8.50;;;7.00;99.90;;;;;;4923470;29;20490;-76
2020/12/11 06:07:09;;;;;;;9.68;8.25;;;7.00;99.90;;;;;;4930010;29;20491;-76
2020/12/11 06:09:36;;;;;;;11.68;9.10;;;7.00;99.90;;;;;;4924554;29;20036;-76
2020/12/11 06:12:05;;;;;;;9.20;8.25;;;6.90;99.90;;;;;;4919680;29;20020;-75
2020/12/11 06:14:36;;;;;;;10.93;7.68;;;6.90;99.90;;;;;;4926617;29;20031;-75
2020/12/11 06:17:04;;;;;;;9.77;8.82;;;6.90;99.90;;;;;;4910230;29;20079;-75
2020/12/11 06:19:32;;;;;;;7.97;6.80;;;6.90;99.90;;;;;;4941717;29;20119;-76
2020/12/11 06:21:58;;;;;;;7.30;6.60;;;6.90;99.90;;;;;;4937064;29;20039;-76
2020/12/11 06:24:28;;;;;;;8.50;7.30;;;7.00;99.90;;;;;;4925069;29;20032;-76
2020/12/11 06:26:59;;;;;;;7.88;6.88;;;7.00;99.90;;;;;;4923661;29;20115;-76
2020/12/11 06:29:33;;;;;;;7.78;6.97;;;7.00;99.90;;;;;;4926905;29;20039;-76
2020/12/11 06:31:58;;;;;;;9.43;8.07;;;7.00;99.90;;;;;;4920122;29;20028;-79
2020/12/11 06:34:25;;;;;;;9.18;7.38;;;6.90;99.90;;;;;;4929462;29;20135;-75
2020/12/11 06:36:52;;;;;;;8.30;7.50;;;6.90;99.90;;;;;;4926693;29;20043;-75
2020/12/11 06:39:40;;;;;;;8.93;8.10;;;6.90;99.90;;;;;;4925399;29;20039;-75
2020/12/11 06:42:07;;;;;;;11.05;9.00;;;6.80;99.90;;;;;;4910912;29;20034;-76
2020/12/11 06:44:33;;;;;;;9.27;7.90;;;6.80;99.90;;;;;;4916538;29;20043;-76
2020/12/11 06:47:10;;;;;;;10.23;7.72;;;6.70;99.90;;;;;;4935075;29;20058;-77
2020/12/11 06:50:04;;;;;;;9.90;8.35;;;6.80;99.90;;;;;;4931352;29;20498;-76
2020/12/11 06:52:34;;;;;;;9.25;7.50;;;6.80;99.90;;;;;;4912602;29;20071;-76
2020/12/11 06:55:00;;;;;;;9.23;8.02;;;6.80;99.90;;;;;;4908009;29;20036;-76
2020/12/11 06:57:35;;;;;;;9.18;8.27;;;6.80;99.90;;;;;;4928825;29;20035;-76
2020/12/11 07:00:21;;;;;;;9.68;7.35;;;6.80;99.90;;;;;;4916863;29;20399;-75
2020/12/11 07:03:07;;;;;;;9.35;7.10;;;6.90;99.90;;;;;;4922641;29;20103;-75
2020/12/11 07:05:33;;;;;;;9.52;8.63;;;6.90;99.90;;;;;;4925626;29;20051;-76
2020/12/11 07:07:59;;;;;;;10.10;7.50;;;7.00;99.90;;;;;;4932695;29;20039;-76
2020/12/11 07:10:26;;;;;;;9.43;7.38;;;7.00;99.90;;;;;;4928850;29;20169;-76
2020/12/11 07:12:53;;;;;;;9.43;7.60;;;7.00;99.90;;;;;;4933108;29;20024;-76
2020/12/11 07:15:19;;;;;;;9.93;7.88;;;7.10;99.90;;;;;;4929626;29;20038;-76
2020/12/11 07:17:46;;;;;;;9.50;6.57;;;7.10;99.90;;;;;;4923766;29;20058;-75
2020/12/11 07:20:12;;;;;;;8.90;8.00;;;7.10;99.90;;;;;;4937335;29;20150;-75
2020/12/11 07:22:39;;;;;;;10.45;7.93;;;7.10;99.90;;;;;;4922108;29;20028;-75
2020/12/11 07:25:04;;;;;;;9.13;8.13;;;7.20;99.90;;;;;;4930380;29;20032;-75
2020/12/11 07:27:30;;;;;;;9.98;8.40;;;7.20;99.90;;;;;;4931164;29;20035;-76
2020/12/11 07:29:56;;;;;;;8.70;6.78;;;7.20;99.90;;;;;;4932254;29;20074;-75
2020/12/11 07:32:23;;;;;;;11.55;8.50;;;7.20;99.90;;;;;;4934787;29;20115;-75
2020/12/11 07:34:50;;;;;;;9.75;7.75;;;7.20;99.90;;;;;;4934719;29;20359;-72
2020/12/11 07:37:15;;;;;;;8.55;7.70;;;7.30;99.90;;;;;;4934193;29;20051;-74
2020/12/11 07:39:42;;;;;;;9.38;7.75;;;7.40;99.90;;;;;;4909438;29;20498;-72
2020/12/11 07:42:09;;;;;;;9.77;7.72;;;7.40;99.90;;;;;;4922901;29;20028;-75
2020/12/11 07:44:38;;;;;;;10.15;7.47;;;7.40;99.90;;;;;;4931297;29;20463;-72
2020/12/11 07:47:12;;;;;;;8.93;8.00;;;7.40;99.90;;;;;;4912189;29;20036;-72
2020/12/11 07:49:43;;;;;;;9.05;6.88;;;7.40;99.90;;;;;;4935045;29;20154;-72
2020/12/11 07:52:10;;;;;;;9.20;7.70;;;7.40;99.90;;;;;;4930012;29;20027;-73
2020/12/11 07:54:43;;;;;;;9.02;7.95;;;7.50;99.90;;;;;;4914853;29;20059;-73
2020/12/11 07:57:25;;;;;;;9.75;6.85;;;7.50;99.90;;;;;;4907053;29;20024;-72
2020/12/11 08:00:04;;;;;;;9.80;8.82;;;7.50;99.90;;;;;;4932192;29;20020;-73
2020/12/11 08:02:32;;;;;;;9.60;7.80;;;7.40;99.90;;;;;;4923397;29;20547;-72
2020/12/11 08:04:58;;;;;;;8.80;7.82;;;7.40;99.90;;;;;;4928494;29;20382;-72
2020/12/11 08:07:25;;;;;;;9.13;7.32;;;7.40;99.90;;;;;;4931892;29;20027;-74
2020/12/11 08:09:51;;;;;;;9.68;8.13;;;7.50;99.90;;;;;;4925852;29;20055;-73
2020/12/11 08:12:17;;;;;;;8.20;7.40;;;7.60;99.90;;;;;;4926534;29;20036;-72
2020/12/11 08:14:43;;;;;;;8.93;7.53;;;7.60;99.90;;;;;;4935946;29;20417;-72
2020/12/11 08:17:14;;;;;;;8.38;7.50;;;7.60;99.90;;;;;;4926498;29;20111;-72
2020/12/11 08:19:40;;;;;;;9.57;8.30;;;7.70;99.90;;;;;;4930145;29;20035;-72
2020/12/11 08:22:40;;;;;;;8.30;6.95;;;7.70;99.90;;;;;;4925064;29;20028;-72
2020/12/11 08:25:22;;;;;;;10.38;8.38;;;7.80;99.90;;;;;;4929771;29;20035;-72
2020/12/11 08:27:48;;;;;;;7.95;6.75;;;7.90;99.90;;;;;;4915347;29;20027;-72
2020/12/11 08:30:15;;;;;;;17.83;11.70;;;7.80;99.90;;;;;;4926791;29;20028;-72
2020/12/11 08:32:42;;;;;;;8.32;7.40;;;8.00;99.90;;;;;;4935325;29;20103;-72
2020/12/11 08:35:20;;;;;;;8.50;6.43;;;8.00;99.90;;;;;;4928840;29;20060;-72
2020/12/11 08:37:54;;;;;;;7.40;6.25;;;7.90;99.90;;;;;;4937177;29;20039;-73
2020/12/11 08:40:21;;;;;;;7.38;6.55;;;7.80;99.90;;;;;;4929918;29;20514;-73
2020/12/11 08:48:56;;;;;;;11.23;6.95;;;7.80;99.90;;;;;;4933505;29;20153;-73
2020/12/11 08:51:22;;;;;;;6.55;5.90;;;7.60;99.90;;;;;;4929478;29;20091;-74
2020/12/11 08:53:50;;;;;;;9.57;8.07;;;7.60;99.90;;;;;;4920980;29;20027;-74
2020/12/11 08:56:16;;;;;;;8.23;6.78;;;7.60;99.90;;;;;;4914947;29;20020;-74
2020/12/11 08:58:41;;;;;;;9.13;6.82;;;7.60;99.90;;;;;;4926014;29;20035;-74
2020/12/11 09:01:07;;;;;;;8.25;7.13;;;7.60;99.90;;;;;;4928843;29;20383;-73
2020/12/11 09:03:33;;;;;;;9.75;6.53;;;7.60;99.90;;;;;;4912408;29;20372;-72
2020/12/11 09:05:59;;;;;;;12.00;6.90;;;7.70;99.90;;;;;;4933017;29;20032;-73
2020/12/11 09:08:24;;;;;;;14.15;7.38;;;7.70;99.90;;;;;;4923206;29;20039;-73
2020/12/11 09:10:50;;;;;;;13.02;7.40;;;7.80;99.90;;;;;;4921528;29;20032;-74
2020/12/11 09:13:16;;;;;;;7.82;6.80;;;7.80;99.90;;;;;;4925545;29;20024;-73
2020/12/11 09:15:41;;;;;;;8.75;7.25;;;7.90;99.90;;;;;;4924696;29;20028;-73
2020/12/11 09:18:07;;;;;;;8.95;7.32;;;7.90;99.90;;;;;;4922698;29;20023;-74
2020/12/11 09:20:33;;;;;;;11.13;7.25;;;8.00;99.90;;;;;;4913921;29;20415;-73
2020/12/11 09:22:59;;;;;;;8.05;7.05;;;8.20;99.90;;;;;;4927721;29;20483;-75
2020/12/11 09:25:25;;;;;;;9.23;7.88;;;8.30;99.90;;;;;;4928495;29;20406;-73
2020/12/11 09:27:50;;;;;;;11.70;7.70;;;8.40;99.90;;;;;;4925041;29;20036;-73
2020/12/11 09:30:35;;;;;;;7.38;6.00;;;8.50;99.90;;;;;;4908146;29;20027;-73
2020/12/11 09:33:05;;;;;;;7.32;6.63;;;8.50;99.90;;;;;;4923078;29;20032;-76
2020/12/11 09:35:31;;;;;;;7.95;6.63;;;8.50;99.90;;;;;;4923679;29;20032;-75
2020/12/11 09:37:58;;;;;;;8.85;6.18;;;8.60;99.90;;;;;;4928979;29;20024;-73
2020/12/11 09:56:08;;;;;;;8.77;6.13;;;9.00;99.90;;;;;;4927134;29;20419;-69
2020/12/11 09:58:35;;;;;;;9.15;7.32;;;9.00;99.90;;;;;;4925809;29;20118;-69
2020/12/11 10:01:02;;;;;;;10.27;6.43;;;9.10;99.90;;;;;;4928751;29;20044;-73
2020/12/11 10:03:34;;;;;;;6.28;5.65;;;9.10;99.90;;;;;;4923975;29;20038;-72
2020/12/11 10:06:00;;;;;;;;;;;9.20;99.90;;;;;;4935312;29;20467;-72
2020/12/11 10:08:25;;;;;;;8.27;6.05;;;9.40;99.90;;;;;;4908958;29;19913;-72
2020/12/11 10:10:52;;;;;;;11.73;6.03;;;9.50;99.90;;;;;;4915527;29;20070;-71
2020/12/11 10:13:17;;;;;;;8.27;5.82;;;9.70;99.90;;;;;;4931180;29;20054;-72
2020/12/11 10:15:44;;;;;;;8.60;6.05;;;9.60;99.90;;;;;;4918368;29;20511;-77
2020/12/11 10:18:10;;;;;;;8.35;5.88;;;9.60;99.90;;;;;;4920959;29;20443;-72
2020/12/11 10:20:36;;;;;;;16.05;6.93;;;9.60;99.90;;;;;;4928155;29;20031;-72
2020/12/11 10:23:01;;;;;;;10.23;6.32;;;9.60;99.90;;;;;;4926262;29;20110;-72
2020/12/11 10:25:27;;;;;;;6.55;5.80;;;9.60;99.90;;;;;;4929289;29;20028;-72
2020/12/11 10:27:54;;;;;;;6.88;6.05;;;9.40;99.90;;;;;;4924320;29;20086;-72
2020/12/11 10:30:20;;;;;;;11.27;5.15;;;9.40;99.90;;;;;;4930589;29;20038;-72
2020/12/11 10:32:45;;;;;;;10.30;6.15;;;9.40;99.90;;;;;;4909081;29;20028;-72
2020/12/11 10:35:11;;;;;;;8.07;5.72;;;9.30;99.90;;;;;;4918321;29;20118;-72
2020/12/11 10:37:38;;;;;;;7.05;5.40;;;9.30;99.90;;;;;;4927691;29;20028;-71
2020/12/11 10:40:05;;;;;;;5.90;4.60;;;9.50;99.90;;;;;;4924030;29;20031;-72
2020/12/11 10:42:31;;;;;;;5.15;4.45;;;9.60;99.90;;;;;;4927788;29;20051;-72
2020/12/11 10:44:57;;;;;;;8.57;4.78;;;9.60;99.90;;;;;;4928731;29;20106;-71
2020/12/11 10:47:23;;;;;;;4.38;3.97;;;9.70;99.90;;;;;;4915964;29;20506;-73
2020/12/11 10:49:49;;;;;;;6.32;4.28;;;9.90;99.90;;;;;;4923047;29;20103;-72
2020/12/11 10:52:16;;;;;;;3.80;3.40;;;9.90;99.90;;;;;;4928008;29;20039;-73
2020/12/11 10:54:42;;;;;;;3.08;2.88;;;10.00;99.90;;;;;;4931332;29;20118;-72
2020/12/11 10:57:08;;;;;;;4.50;4.05;;;10.10;99.90;;;;;;4924543;29;20091;-73
2020/12/11 10:59:34;;;;;;;4.90;4.15;;;10.30;99.90;;;;;;4932284;29;20412;-73
2020/12/11 11:01:59;;;;;;;4.75;4.35;;;10.40;99.90;;;;;;4931495;29;20039;-73
2020/12/11 11:04:25;;;;;;;5.90;4.15;;;10.60;99.90;;;;;;4914876;29;20024;-73
2020/12/11 11:06:56;;;;;;;6.05;4.03;;;10.60;99.90;;;;;;4920231;29;20112;-73
2020/12/11 11:15:10;;;;;;;6.43;5.30;;;10.90;99.90;;;;;;4934285;29;20048;-72
2020/12/11 11:27:53;;;;;;;6.22;4.65;;;10.10;99.90;;;;;;4925907;29;20552;-73
2020/12/11 11:30:21;;;;;;;12.20;5.05;;;10.10;99.90;;;;;;4929586;29;20046;-75
2020/12/11 11:32:49;;;;;;;6.25;4.38;;;10.00;99.90;;;;;;4928822;29;20032;-74
2020/12/11 11:35:16;;;;;;;6.00;4.85;;;10.00;99.90;;;;;;4903183;29;20040;-73
2020/12/11 11:37:41;;;;;;;4.85;4.35;;;10.00;99.90;;;;;;4929316;29;20050;-70
2020/12/11 11:40:07;;;;;;;7.18;5.05;;;10.00;99.90;;;;;;4927465;29;20111;-75
2020/12/11 11:42:33;;;;;;;5.28;3.88;;;10.00;99.90;;;;;;4932926;29;20028;-75
2020/12/11 11:45:02;;;;;;;4.78;3.78;;;10.00;99.90;;;;;;4936887;29;20107;-74
2020/12/11 11:47:28;;;;;;;5.32;4.78;;;10.00;99.90;;;;;;4942687;29;20087;-74
2020/12/11 11:52:38;;;;;;;5.00;3.72;;;10.00;99.90;;;;;;4943002;29;20034;-74
2020/12/11 11:55:10;;;;;;;7.22;4.50;;;10.10;99.90;;;;;;4928531;29;20169;-74
2020/12/11 11:57:36;;;;;;;;;;;10.00;99.90;;;;;;4926960;29;20479;-74
2020/12/11 12:00:03;;;;;;;6.43;4.75;;;10.10;99.90;;;;;;4929546;29;19918;-74
2020/12/11 12:02:29;;;;;;;5.10;4.47;;;10.20;99.90;;;;;;4918547;29;20472;-74
2020/12/11 12:04:55;;;;;;;5.53;4.50;;;10.30;99.90;;;;;;4926782;29;20043;-74
2020/12/11 12:07:21;;;;;;;5.75;4.30;;;10.40;99.90;;;;;;4930834;29;21468;-75
2020/12/11 12:09:46;;;;;;;8.65;4.43;;;10.50;99.90;;;;;;4928550;29;20040;-74
2020/12/11 12:12:12;;;;;;;8.32;5.57;;;10.60;99.90;;;;;;4926777;29;20024;-76
2020/12/11 12:14:38;;;;;;;5.15;4.30;;;10.80;99.90;;;;;;4937011;29;20074;-74
2020/12/11 12:17:06;;;;;;;10.52;4.35;;;10.90;99.90;;;;;;4929958;29;20032;-74
2020/12/11 12:19:35;;;;;;;8.07;4.50;;;11.00;99.90;;;;;;4927843;29;20384;-74
2020/12/11 12:23:04;;;;;;;5.80;4.63;;;11.10;99.90;;;;;;4920783;29;20167;-75
2020/12/11 12:30:38;;;;;;;5.53;5.00;;;11.20;99.90;;;;;;4896389;29;20116;-74
2020/12/11 12:43:24;;;;;;;6.47;5.72;;;10.80;99.90;;;;;;4933970;29;20028;-74
2020/12/11 12:45:50;;;;;;;9.27;5.93;;;10.90;99.90;;;;;;4926872;29;20067;-74
2020/12/11 12:48:17;;;;;;;8.20;4.95;;;10.90;99.90;;;;;;4920898;29;20051;-74
2020/12/11 12:50:43;;;;;;;5.13;4.10;;;11.00;99.90;;;;;;4937068;29;20024;-74
2020/12/11 12:53:09;;;;;;;4.88;4.35;;;11.10;99.90;;;;;;4935479;29;20024;-74
2020/12/11 12:56:31;;;;;;;4.95;4.30;;;11.10;99.90;;;;;;4931089;29;20149;-74
2020/12/11 12:58:36;;;;;;;13.50;5.00;;;11.20;99.90;;;;;;4928012;29;20038;-74
2020/12/11 13:01:11;;;;;;;6.70;5.10;;;11.10;99.90;;;;;;4928820;29;20474;-74
2020/12/11 13:06:09;;;;;;;8.70;6.38;;;10.90;99.90;;;;;;4925106;29;20027;-75
2020/12/11 13:08:34;;;;;;;12.07;7.03;;;10.90;99.90;;;;;;4928416;29;20106;-74
2020/12/11 13:11:00;;;;;;;6.85;5.78;;;10.90;99.90;;;;;;4915896;29;20147;-77
2020/12/11 13:13:26;;;;;;;7.30;6.57;;;11.00;99.90;;;;;;4929606;29;20530;-74
2020/12/11 13:15:52;;;;;;;13.73;10.80;;;11.00;99.90;;;;;;4928160;29;20094;-75
2020/12/11 13:18:17;;;;;;;20.05;10.10;;;11.00;99.90;;;;;;4935399;29;20074;-77
2020/12/11 13:20:44;;;;;;;13.45;8.60;;;10.90;99.90;;;;;;4925745;29;20109;-74
2020/12/11 13:28:36;;;;;;;15.45;7.28;;;10.60;99.90;;;;;;4924074;29;20090;-74
2020/12/11 13:31:02;;;;;;;9.55;7.15;;;10.50;99.90;;;;;;4928653;29;20040;-74
2020/12/11 13:33:28;;;;;;;8.40;7.03;;;10.40;99.90;;;;;;4930877;29;20032;-70
2020/12/11 13:35:53;;;;;;;8.05;7.03;;;10.30;99.90;;;;;;4926732;29;20078;-73
2020/12/11 13:38:19;;;;;;;16.15;9.02;;;10.30;99.90;;;;;;4923752;29;20083;-74
2020/12/11 13:40:45;;;;;;;8.60;7.72;;;10.40;99.90;;;;;;4928531;29;20024;-73
2020/12/11 13:43:11;;;;;;;17.67;10.02;;;10.40;99.90;;;;;;4914021;29;20029;-74
2020/12/11 13:45:37;;;;;;;13.38;9.25;;;10.30;99.90;;;;;;4928311;29;20031;-73
2020/12/11 13:48:03;;;;;;;9.52;8.07;;;10.30;99.90;;;;;;4916435;29;20380;-73
2020/12/11 13:50:29;;;;;;;12.38;9.57;;;10.50;99.90;;;;;;4933895;29;20026;-72
2020/12/11 13:52:55;;;;;;;12.13;9.45;;;10.60;99.90;;;;;;4926690;29;20063;-73
2020/12/11 13:55:21;;;;;;;10.15;8.68;;;10.50;99.90;;;;;;4931211;29;20095;-74
2020/12/11 13:57:47;;;;;;;8.85;7.93;;;10.50;99.90;;;;;;4925728;29;20147;-73